WetterOnline ( https://www.wetteronline.de )

Wetter aktuell Utarp

Aktuelles Wetter: Norderney (16m)

6-stündlich | Neueste Meldungen
Ortszeit Temperatur Wetter
So, 29.11. 1:00 1.4° C bedeckt
Sa, 28.11. 19:00 3.9° C bedeckt
Sa, 28.11. 13:00 4.5° C bedeckt
Sa, 28.11. 7:00 5.3° C bedeckt
Sa, 28.11. 1:00 6.3° C wolkenlos
Fr, 27.11. 19:00 7.6° C bedeckt
Fr, 27.11. 13:00 7.5° C bedeckt
Fr, 27.11. 7:00 6.5° C bedeckt
Ortszeit Temperatur Wetter
So, 29.11. 2:30 1.4° C bedeckt
So, 29.11. 2:20 1.4° C bedeckt
So, 29.11. 2:10 1.4° C bedeckt
So, 29.11. 2:00 1.3° C bedeckt
So, 29.11. 1:50 1.3° C bedeckt
So, 29.11. 1:40 1.3° C bedeckt
So, 29.11. 1:30 1.3° C bedeckt
So, 29.11. 1:00 1.4° C bedeckt
So, 29.11. 0:30 1.3° C bedeckt
So, 29.11. 0:00 1.6° C bedeckt
Sa, 28.11. 23:30 1.8° C bedeckt
Ortszeit Relative Feuchte Sichtweite
So, 29.11. 1:00 86% 27 km
Sa, 28.11. 19:00 86% 18 km
Sa, 28.11. 13:00 96% 2.9 km
Sa, 28.11. 7:00 92% 7 km
Sa, 28.11. 1:00 91% 10 km
Fr, 27.11. 19:00 87% 23 km
Fr, 27.11. 13:00 87% 29 km
Fr, 27.11. 7:00 97% 15 km
Ortszeit Relative Feuchte Sichtweite
So, 29.11. 2:30 85% 19 km
So, 29.11. 2:20 85% -
So, 29.11. 2:10 85% -
So, 29.11. 2:00 85% 18 km
So, 29.11. 1:50 85% -
So, 29.11. 1:40 85% -
So, 29.11. 1:30 87% 22 km
So, 29.11. 1:00 86% 27 km
So, 29.11. 0:30 86% 30 km
So, 29.11. 0:00 87% 30 km
Sa, 28.11. 23:30 88% 25 km
Ortszeit Niederschlagsmenge Niederschlagsart
So, 29.11. 1:00 0.0 l/m2 in 6 Std. -
Sa, 28.11. 19:00 0.1 l/m2 in 12 Std. -
Sa, 28.11. 13:00 0.1 l/m2 in 6 Std. Sprühregen
Sa, 28.11. 7:00 0.0 l/m2 in 12 Std. -
Sa, 28.11. 1:00 0.0 l/m2 in 6 Std. -
Fr, 27.11. 19:00 0.1 l/m2 in 12 Std. Sprühregen
Fr, 27.11. 13:00 0.1 l/m2 in 6 Std. Regen
Fr, 27.11. 7:00 0.1 l/m2 in 12 Std. Regen
Ortszeit Niederschlagsmenge Niederschlagsart
So, 29.11. 2:30 0.0 l/m2 in 1 Std. -
So, 29.11. 2:20 keine Meldung -
So, 29.11. 2:10 keine Meldung -
So, 29.11. 2:00 0.0 l/m2 in 1 Std. -
So, 29.11. 1:50 keine Meldung -
So, 29.11. 1:40 keine Meldung -
So, 29.11. 1:30 0.0 l/m2 in 1 Std. -
So, 29.11. 1:00 0.0 l/m2 in 1 Std. -
So, 29.11. 0:30 0.0 l/m2 in 1 Std. -
So, 29.11. 0:00 0.0 l/m2 in 1 Std. -
Sa, 28.11. 23:30 0.0 l/m2 in 1 Std. -
Ortszeit Stärke Spitze Richtung
km/h Bft. km/h Grad Sektor
So, 29.11. 1:00 17 3 35 120° SO
Sa, 28.11. 19:00 13 3 31 110° O
Sa, 28.11. 13:00 17 3 30 110° O
Sa, 28.11. 7:00 11 2 25 100° O
Sa, 28.11. 1:00 11 2 29 100° O
Fr, 27.11. 19:00 14 3 25 120° SO
Fr, 27.11. 13:00 7 2 14 120° SO
Fr, 27.11. 7:00 0 0 7 - -
Ortszeit Stärke Spitze Richtung
km/h Bft. km/h Grad Sektor
So, 29.11. 2:30 13 3 26 120° SO
So, 29.11. 2:20 13 3 - 120° SO
So, 29.11. 2:10 15 3 - 110° O
So, 29.11. 2:00 14 3 29 120° SO
So, 29.11. 1:50 14 3 - 120° SO
So, 29.11. 1:40 9 2 - 110° O
So, 29.11. 1:30 15 3 28 110° O
So, 29.11. 1:00 17 3 31 120° SO
So, 29.11. 0:30 17 3 30 120° SO
So, 29.11. 0:00 18 3 29 130° SO
Sa, 28.11. 23:30 15 3 26 130° SO
Ortszeit Untergrenze Bedeckung Gattung
total tief tief mittel hoch
So, 29.11. 1:00 210 m 8/8 8/8 - - -
Sa, 28.11. 19:00 270 m 8/8 8/8 - - -
Sa, 28.11. 13:00 60 m 8/8 8/8 - - -
Sa, 28.11. 7:00 270 m 8/8 8/8 - - -
Sa, 28.11. 1:00 - 0/8 0/8 - - -
Fr, 27.11. 19:00 390 m 8/8 8/8 - - -
Fr, 27.11. 13:00 1260 m 8/8 8/8 - - -
Fr, 27.11. 7:00 1500 m 8/8 8/8 - - -
Ortszeit Bedeckungsgrad in Achtel und Wolkenuntergrenze
So, 29.11. 2:30 8(240m)
So, 29.11. 2:20 8(240m)
So, 29.11. 2:10 8(240m)
So, 29.11. 2:00 8(240m)
So, 29.11. 1:50 8(240m)
So, 29.11. 1:40 8(240m)
So, 29.11. 1:30 8(210m)
So, 29.11. 1:00 8(210m)
So, 29.11. 0:30 8(210m)
So, 29.11. 0:00 8(210m)
Sa, 28.11. 23:30 8(210m)
Ortszeit Luftdruck NN (hPa) Tendenz (hPa in 3 Std.)
So, 29.11. 1:00 1028 + 0,5
Sa, 28.11. 19:00 1026 + 1,3
Sa, 28.11. 13:00 1024 + 0,3
Sa, 28.11. 7:00 1022 + 0,4
Sa, 28.11. 1:00 1022 0,0
Fr, 27.11. 19:00 1021 + 0,1
Fr, 27.11. 13:00 1021 - 0,3
Fr, 27.11. 7:00 1021 + 0,2
Ortszeit Luftdruck NN (hPa) Tendenz (hPa in 3 Std.)
So, 29.11. 2:30 1027 - 0,2
So, 29.11. 2:20 1027 keine Meldung
So, 29.11. 2:10 1027 keine Meldung
So, 29.11. 2:00 1027 + 0,1
So, 29.11. 1:50 1027 keine Meldung
So, 29.11. 1:40 1028 keine Meldung
So, 29.11. 1:30 1028 + 0,4
So, 29.11. 1:00 1028 + 0,5
So, 29.11. 0:30 1028 + 0,9
So, 29.11. 0:00 1028 + 1,0
Sa, 28.11. 23:30 1028 + 1,3
Ortszeit Schneehöhe (cm)
So, 29.11. 1:00 0
Sa, 28.11. 19:00 0
Sa, 28.11. 13:00 0
Sa, 28.11. 7:00 0
Sa, 28.11. 1:00 0
Fr, 27.11. 19:00 0
Fr, 27.11. 13:00 0
Fr, 27.11. 7:00 0
Ortszeit Schneehöhe (cm)
So, 29.11. 2:30 0
So, 29.11. 2:20 0
So, 29.11. 2:10 0
So, 29.11. 2:00 0
So, 29.11. 1:50 0
So, 29.11. 1:40 0
So, 29.11. 1:30 0
So, 29.11. 1:00 0
So, 29.11. 0:30 0
So, 29.11. 0:00 0
Sa, 28.11. 23:30 0
Link zu dieser Seite / Seite empfehlen

Das Wetter in ...